Time;durP1;ratioP1;P1;durP2;ratioP2;P2;SDS_P1;SDS_P2;PMS_P1;PMS_P2;Temp;Humidity;BMP_temperature;BMP_pressure;BME280_temperature;BME280_humidity;BME280_pressure;Samples;Min_cycle;Max_cycle;Signal;HPM_P1;HPM_P2
2023/11/10 00:01:51;;;;;;;2.00;0.63;;;;;;;8.21;100.00;96904.94;15271453;19;20015;-47
2023/11/10 00:07:17;;;;;;;1.52;0.70;;;;;;;8.31;100.00;96910.84;15262476;19;20021;-46
2023/11/10 00:12:42;;;;;;;0.85;0.57;;;;;;;8.37;100.00;96895.88;15269583;19;20013;-46
2023/11/10 00:18:09;;;;;;;1.80;0.73;;;;;;;8.43;100.00;96884.41;15267736;19;20445;-48
2023/11/10 00:23:34;;;;;;;1.48;0.80;;;;;;;8.48;100.00;96881.19;15279800;19;20014;-49
2023/11/10 00:28:59;;;;;;;1.08;0.70;;;;;;;8.54;100.00;96868.88;15281936;19;20029;-52
2023/11/10 00:34:33;;;;;;;1.75;0.73;;;;;;;8.60;100.00;96855.53;15278617;19;20026;-47
2023/11/10 00:40:00;;;;;;;1.35;0.60;;;;;;;8.70;100.00;96857.09;15276321;19;20653;-51
2023/11/10 00:45:25;;;;;;;1.38;0.70;;;;;;;8.74;100.00;96858.41;15278169;19;20014;-49
2023/11/10 00:50:52;;;;;;;1.50;0.70;;;;;;;8.74;100.00;96853.03;15282252;19;20094;-48
2023/11/10 00:56:17;;;;;;;0.88;0.60;;;;;;;8.76;100.00;96853.69;15278409;19;20396;-46
2023/11/10 01:01:42;;;;;;;1.65;0.60;;;;;;;8.76;100.00;96842.94;15282321;19;20599;-46
2023/11/10 01:07:09;;;;;;;0.82;0.50;;;;;;;8.75;100.00;96844.78;15271543;19;20014;-47
2023/11/10 01:12:34;;;;;;;0.85;0.50;;;;;;;8.73;100.00;96829.88;15273356;19;20026;-47
2023/11/10 01:17:59;;;;;;;1.00;0.57;;;;;;;8.71;100.00;96813.13;15279764;19;20010;-48
2023/11/10 01:23:26;;;;;;;1.30;0.50;;;;;;;8.67;100.00;96810.00;15279195;19;20015;-48
2023/11/10 01:28:51;;;;;;;0.70;0.50;;;;;;;8.63;100.00;96797.97;15277991;19;20025;-50
2023/11/10 01:34:22;;;;;;;0.55;0.50;;;;;;;8.58;100.00;96803.91;15276843;19;20078;-49
2023/11/10 01:39:49;;;;;;;1.47;0.50;;;;;;;8.57;100.00;96802.22;15275144;19;20029;-50
2023/11/10 01:45:15;;;;;;;0.43;0.40;;;;;;;8.55;100.00;96804.25;15268565;19;20803;-49
2023/11/10 01:50:47;;;;;;;1.90;0.60;;;;;;;8.56;100.00;96789.00;15276995;19;20014;-50
2023/11/10 01:56:14;;;;;;;0.90;0.50;;;;;;;8.64;100.00;96805.81;15276332;19;20070;-50
2023/11/10 02:01:40;;;;;;;0.70;0.40;;;;;;;8.73;100.00;96789.63;15277651;19;20033;-47
2023/11/10 02:07:06;;;;;;;0.85;0.35;;;;;;;8.81;100.00;96770.69;15271828;19;20036;-47
2023/11/10 02:12:33;;;;;;;1.48;0.30;;;;;;;8.89;100.00;96759.81;15278318;19;20010;-51
2023/11/10 02:17:59;;;;;;;0.60;0.40;;;;;;;8.93;100.00;96753.03;15270632;19;20082;-45
2023/11/10 02:23:25;;;;;;;0.98;0.40;;;;;;;8.97;100.00;96752.66;15275336;19;20040;-49
2023/11/10 02:28:52;;;;;;;0.35;0.30;;;;;;;9.03;100.00;96762.63;15272427;19;20014;-49
2023/11/10 02:34:24;;;;;;;0.57;0.38;;;;;;;9.04;100.00;96793.84;15270821;19;20014;-52
2023/11/10 02:39:49;;;;;;;0.30;0.30;;;;;;;9.06;100.00;96789.13;15275875;19;20524;-50
2023/11/10 02:45:18;;;;;;;0.30;0.28;;;;;;;9.03;100.00;96789.50;15269996;19;20006;-47
2023/11/10 02:50:44;;;;;;;0.35;0.30;;;;;;;9.04;100.00;96796.53;15239823;19;20082;-49
2023/11/10 02:56:09;;;;;;;0.32;0.25;;;;;;;9.09;100.00;96788.75;15272179;19;20014;-46
2023/11/10 03:01:36;;;;;;;0.30;0.30;;;;;;;9.10;100.00;96795.78;15272120;19;20468;-49
2023/11/10 03:07:03;;;;;;;0.20;0.20;;;;;;;9.14;100.00;96782.78;15264638;19;20015;-47
2023/11/10 03:12:29;;;;;;;1.73;0.47;;;;;;;9.16;100.00;96776.19;15267869;19;20022;-47
2023/11/10 03:17:57;;;;;;;0.30;0.30;;;;;;;9.14;100.00;96764.78;15270648;19;20034;-47
2023/11/10 03:23:22;;;;;;;0.43;0.32;;;;;;;9.13;100.00;96773.06;15266468;19;20081;-49
2023/11/10 03:28:47;;;;;;;0.30;0.30;;;;;;;9.13;100.00;96779.25;15269057;19;20014;-48
2023/11/10 03:34:15;;;;;;;1.35;0.50;;;;;;;9.15;100.00;96779.06;15264471;19;20025;-48
2023/11/10 03:39:39;;;;;;;0.80;0.30;;;;;;;9.11;100.00;96775.94;15269947;19;20015;-47
2023/11/10 03:45:04;;;;;;;0.45;0.45;;;;;;;9.02;100.00;96766.34;15265264;19;20078;-47
2023/11/10 03:50:31;;;;;;;1.05;0.45;;;;;;;8.88;100.00;96763.53;15266472;19;20029;-52
2023/11/10 03:55:56;;;;;;;0.20;0.20;;;;;;;8.74;100.00;96759.06;15259324;19;20468;-55
2023/11/10 04:01:20;;;;;;;1.15;0.50;;;;;;;8.69;100.00;96750.72;15264900;19;20021;-51
2023/11/10 04:06:49;;;;;;;0.13;0.10;;;;;;;8.69;100.00;96761.47;15261412;19;20016;-48
2023/11/10 04:12:16;;;;;;;0.43;0.20;;;;;;;8.61;100.00;96760.59;15261525;19;20010;-51
2023/11/10 04:17:41;;;;;;;0.30;0.28;;;;;;;8.52;100.00;96758.19;15267530;19;20014;-51
2023/11/10 04:23:08;;;;;;;1.95;0.40;;;;;;;8.42;100.00;96755.75;15269608;19;20265;-51
2023/11/10 04:28:34;;;;;;;0.50;0.38;;;;;;;8.32;100.00;96759.59;15260940;19;20026;-50
2023/11/10 04:34:06;;;;;;;0.50;0.25;;;;;;;8.26;100.00;96762.19;15264085;19;20014;-52
2023/11/10 04:39:37;;;;;;;1.05;0.40;;;;;;;8.23;100.00;96766.09;15266197;19;20440;-52
2023/11/10 04:45:01;;;;;;;0.52;0.38;;;;;;;8.17;100.00;96769.53;15262813;19;20040;-50
2023/11/10 04:50:31;;;;;;;0.70;0.30;;;;;;;8.13;100.00;96757.50;15265926;19;20014;-50
2023/11/10 04:56:05;;;;;;;0.38;0.30;;;;;;;8.11;100.00;96760.38;15262208;19;20014;-48
2023/11/10 05:01:31;;;;;;;0.30;0.30;;;;;;;8.11;100.00;96759.53;15268218;19;20023;-49
2023/11/10 05:06:56;;;;;;;1.67;0.40;;;;;;;8.14;100.00;96767.22;15264821;19;20014;-47
2023/11/10 05:12:24;;;;;;;0.75;0.50;;;;;;;8.18;100.00;96771.16;15278137;19;20028;-52
2023/11/10 05:17:50;;;;;;;0.80;0.40;;;;;;;8.22;100.00;96775.16;15279128;19;20010;-49
2023/11/10 05:23:16;;;;;;;1.25;0.50;;;;;;;8.25;100.00;96765.88;15279204;19;20417;-47
2023/11/10 05:28:43;;;;;;;4.97;0.40;;;;;;;8.26;100.00;96762.19;15272102;19;20855;-52
2023/11/10 05:34:16;;;;;;;1.23;0.40;;;;;;;8.28;100.00;96761.00;15272217;19;20018;-50
2023/11/10 05:39:41;;;;;;;1.33;0.50;;;;;;;8.32;100.00;96756.91;15274990;19;20014;-48
2023/11/10 05:45:09;;;;;;;0.45;0.40;;;;;;;8.33;100.00;96758.56;15272687;19;20026;-49
2023/11/10 05:50:34;;;;;;;0.40;0.30;;;;;;;8.35;100.00;96761.06;15304289;19;20014;-49
2023/11/10 05:55:59;;;;;;;0.57;0.30;;;;;;;8.29;100.00;96770.69;15273510;19;20022;-49
2023/11/10 06:01:28;;;;;;;0.95;0.40;;;;;;;8.26;100.00;96773.78;15272242;19;20089;-49
2023/11/10 06:06:53;;;;;;;0.32;0.30;;;;;;;8.18;100.00;96785.44;15271837;19;20014;-48
2023/11/10 06:12:18;;;;;;;1.77;0.52;;;;;;;8.16;100.00;96789.31;15276664;19;20014;-50
2023/11/10 06:17:45;;;;;;;0.57;0.35;;;;;;;8.18;100.00;96798.00;15276081;19;20026;-50
2023/11/10 06:23:10;;;;;;;1.40;0.50;;;;;;;8.21;100.00;96800.31;15275192;19;20555;-50
2023/11/10 06:28:36;;;;;;;0.65;0.35;;;;;;;8.22;100.00;96804.66;15274668;19;20014;-50
2023/11/10 06:34:11;;;;;;;0.85;0.40;;;;;;;8.25;100.00;96814.19;15264533;19;20049;-48
2023/11/10 06:39:36;;;;;;;0.60;0.43;;;;;;;8.28;100.00;96820.03;15272929;19;20792;-50
2023/11/10 06:45:00;;;;;;;0.70;0.60;;;;;;;8.30;100.00;96820.66;15267182;19;20050;-50
2023/11/10 06:50:30;;;;;;;1.98;0.40;;;;;;;8.32;100.00;96810.56;15270699;19;20090;-51
2023/11/10 06:55:54;;;;;;;0.75;0.30;;;;;;;8.32;100.00;96807.88;15270445;19;20051;-48
2023/11/10 07:01:19;;;;;;;1.65;0.52;;;;;;;8.34;100.00;96818.44;15272586;19;20022;-47
2023/11/10 07:06:46;;;;;;;1.25;0.47;;;;;;;8.32;100.00;96810.56;15264195;19;20010;-48
2023/11/10 07:12:11;;;;;;;1.52;0.38;;;;;;;8.32;100.00;96810.56;15270280;19;20020;-49
2023/11/10 07:17:36;;;;;;;0.82;0.38;;;;;;;8.33;100.00;96822.97;15266547;19;20018;-48
2023/11/10 07:23:05;;;;;;;1.10;0.35;;;;;;;8.36;100.00;96826.31;15271314;19;20021;-46
2023/11/10 07:28:31;;;;;;;1.27;0.63;;;;;;;8.38;100.00;96825.09;15269211;19;20018;-54
2023/11/10 07:34:03;;;;;;;1.23;0.60;;;;;;;8.38;100.00;96829.63;15267529;19;20760;-49
2023/11/10 07:39:31;;;;;;;0.75;0.50;;;;;;;8.34;100.00;96831.88;15264732;19;20018;-49
2023/11/10 07:44:55;;;;;;;1.40;0.65;;;;;;;8.31;100.00;96830.38;15268127;19;20010;-49
2023/11/10 07:50:24;;;;;;;0.70;0.57;;;;;;;8.28;100.00;96836.13;15269422;19;20648;-48
2023/11/10 07:55:52;;;;;;;0.45;0.30;;;;;;;8.22;100.00;96836.84;15266022;19;20010;-47
2023/11/10 08:01:18;;;;;;;1.10;0.50;;;;;;;8.19;100.00;96845.25;15268518;19;20074;-49
2023/11/10 08:06:43;;;;;;;0.60;0.45;;;;;;;8.15;100.00;96844.81;15264088;19;20480;-49
2023/11/10 08:12:12;;;;;;;0.65;0.30;;;;;;;8.13;100.00;96835.28;15262657;19;20007;-48
2023/11/10 08:17:37;;;;;;;0.47;0.30;;;;;;;8.09;100.00;96850.06;15263152;19;20412;-49
2023/11/10 08:23:02;;;;;;;1.20;0.38;;;;;;;8.08;100.00;96859.13;15266361;19;20029;-48
2023/11/10 08:28:29;;;;;;;0.68;0.40;;;;;;;8.02;100.00;96866.91;15265488;19;20024;-52
2023/11/10 08:33:54;;;;;;;0.52;0.47;;;;;;;7.97;100.00;96871.16;15265282;19;20874;-48
2023/11/10 08:39:18;;;;;;;1.52;0.80;;;;;;;7.91;100.00;96874.56;15267535;19;20407;-48
2023/11/10 08:44:47;;;;;;;0.80;0.40;;;;;;;7.80;100.00;96870.50;15269577;19;20022;-50
2023/11/10 08:50:13;;;;;;;0.80;0.45;;;;;;;7.69;100.00;96882.47;15281353;19;20014;-49
2023/11/10 08:55:39;;;;;;;0.57;0.30;;;;;;;7.63;100.00;96885.88;15276966;19;20025;-47
2023/11/10 09:01:07;;;;;;;0.45;0.35;;;;;;;7.55;100.00;96886.78;15280174;19;20379;-49
2023/11/10 09:06:32;;;;;;;0.30;0.30;;;;;;;7.48;100.00;96889.34;15274809;19;20024;-48
2023/11/10 09:11:57;;;;;;;0.57;0.30;;;;;;;7.36;100.00;96890.78;15279760;19;20022;-47
2023/11/10 09:17:25;;;;;;;0.65;0.35;;;;;;;7.27;100.00;96897.22;15271175;19;20472;-48
2023/11/10 09:22:50;;;;;;;0.82;0.45;;;;;;;7.25;100.00;96892.00;15279924;19;20449;-51
2023/11/10 09:28:21;;;;;;;0.40;0.30;;;;;;;7.31;100.00;96898.50;15278142;19;20393;-52
2023/11/10 09:33:51;;;;;;;0.38;0.20;;;;;;;7.31;100.00;96899.34;15277059;19;20031;-47
2023/11/10 09:39:16;;;;;;;0.60;0.30;;;;;;;7.35;100.00;96911.34;15277768;19;20334;-48
2023/11/10 09:44:45;;;;;;;1.05;0.38;;;;;;;7.34;100.00;96914.22;15275101;19;20127;-48
2023/11/10 09:50:13;;;;;;;0.43;0.30;;;;;;;7.30;100.00;96908.41;15272155;19;20021;-47
2023/11/10 09:55:40;;;;;;;1.85;0.32;;;;;;;7.36;100.00;96921.06;15271353;19;20022;-50
2023/11/10 10:01:06;;;;;;;0.50;0.22;;;;;;;7.44;100.00;96917.50;15276684;19;20044;-48
2023/11/10 10:06:37;;;;;;;0.57;0.57;;;;;;;7.54;100.00;96925.31;15271667;19;20015;-50
2023/11/10 10:12:05;;;;;;;0.50;0.43;;;;;;;7.64;100.00;96938.47;15273951;19;20010;-49
2023/11/10 10:17:36;;;;;;;0.57;0.40;;;;;;;7.68;100.00;96921.84;15272152;19;20049;-48
2023/11/10 10:23:03;;;;;;;0.57;0.40;;;;;;;7.67;100.00;96917.50;15268351;19;20401;-48
2023/11/10 10:28:28;;;;;;;1.75;0.30;;;;;;;7.70;100.00;96922.47;15273851;19;20089;-47
2023/11/10 10:34:04;;;;;;;0.52;0.20;;;;;;;7.67;100.00;96919.34;15272560;19;20014;-48
2023/11/10 10:39:31;;;;;;;0.40;0.30;;;;;;;7.78;100.00;96920.75;15274356;19;20018;-48
2023/11/10 10:44:58;;;;;;;0.30;0.20;;;;;;;7.88;100.00;96915.97;15270669;19;20018;-48
2023/11/10 10:50:27;;;;;;;2.13;0.32;;;;;;;7.96;100.00;96921.25;15273681;19;20014;-50
2023/11/10 10:55:58;;;;;;;0.55;0.43;;;;;;;8.07;100.00;96924.50;15264178;19;20014;-47
2023/11/10 11:01:24;;;;;;;0.37;0.30;;;;;;;8.13;100.00;96923.78;15272636;19;20084;-50
2023/11/10 11:07:22;;;;;;;0.10;0.10;;;;;;;8.05;100.00;96923.88;15267253;19;20031;-47
2023/11/10 11:13:06;;;;;;;0.68;0.32;;;;;;;8.08;100.00;96926.19;15271310;19;20018;-48
2023/11/10 11:18:42;;;;;;;1.05;0.40;;;;;;;8.20;100.00;96915.84;15267706;19;20646;-48
2023/11/10 11:24:09;;;;;;;1.10;0.30;;;;;;;8.32;100.00;96927.81;15266949;19;20014;-48
2023/11/10 11:29:44;;;;;;;0.73;0.40;;;;;;;8.46;100.00;96918.09;15270755;19;20010;-48
2023/11/10 11:35:21;;;;;;;0.70;0.32;;;;;;;8.55;100.00;96919.69;15267681;19;20465;-48
2023/11/10 11:40:47;;;;;;;0.63;0.30;;;;;;;8.47;100.00;96899.13;15272647;19;20524;-47
2023/11/10 11:46:14;;;;;;;0.85;0.30;;;;;;;8.52;100.00;96898.59;15265741;19;20031;-51
2023/11/10 11:51:42;;;;;;;1.63;0.40;;;;;;;8.48;100.00;96883.88;15269249;19;20025;-47
2023/11/10 11:57:07;;;;;;;1.33;0.30;;;;;;;8.51;100.00;96894.25;15259681;19;20018;-50
2023/11/10 12:02:39;;;;;;;0.98;0.50;;;;;;;8.62;100.00;96893.78;15272813;19;20403;-49
2023/11/10 12:08:05;;;;;;;1.13;0.40;;;;;;;8.71;100.00;96875.69;15268009;19;20602;-48
2023/11/10 12:13:30;;;;;;;0.93;0.30;;;;;;;8.72;100.00;96868.47;15267880;19;20017;-49
2023/11/10 12:19:01;;;;;;;1.20;0.40;;;;;;;8.83;100.00;96867.16;15274543;19;20367;-48
2023/11/10 12:24:30;;;;;;;0.28;0.20;;;;;;;8.78;100.00;96856.97;15280167;19;20025;-49
2023/11/10 12:29:54;;;;;;;1.02;0.30;;;;;;;8.63;100.00;96849.81;15277919;19;20018;-50
2023/11/10 12:35:25;;;;;;;3.70;0.40;;;;;;;8.61;100.00;96851.84;15278361;19;20022;-50
2023/11/10 12:40:53;;;;;;;1.75;0.30;;;;;;;8.73;100.00;96859.41;15282690;19;20021;-50
2023/11/10 12:46:20;;;;;;;0.30;0.22;;;;;;;9.09;100.00;96854.03;15276291;19;20014;-46
2023/11/10 12:51:47;;;;;;;0.43;0.22;;;;;;;9.23;100.00;96849.59;15282876;19;20093;-49
2023/11/10 12:57:12;;;;;;;0.47;0.28;;;;;;;9.20;100.00;96831.22;15274908;19;20040;-50
2023/11/10 13:02:36;;;;;;;1.10;0.43;;;;;;;9.21;100.00;96838.25;15276482;19;20212;-48
2023/11/10 13:08:04;;;;;;;1.05;0.30;;;;;;;9.15;100.00;96838.19;15280910;19;20031;-48
2023/11/10 13:13:29;;;;;;;1.05;0.30;;;;;;;9.05;100.00;96831.28;15279136;19;20022;-49
2023/11/10 13:18:54;;;;;;;0.85;0.30;;;;;;;9.00;100.00;96832.84;15275764;19;20014;-50
2023/11/10 13:24:22;;;;;;;0.30;0.20;;;;;;;9.01;100.00;96834.50;15278134;19;20014;-48
2023/11/10 13:29:47;;;;;;;1.05;0.32;;;;;;;9.04;100.00;96836.81;15279217;19;20006;-50
2023/11/10 13:35:20;;;;;;;0.32;0.25;;;;;;;9.15;100.00;96840.88;15271399;19;20019;-50
2023/11/10 13:40:48;;;;;;;0.40;0.20;;;;;;;9.28;100.00;96829.41;15278265;19;20014;-50
2023/11/10 13:46:13;;;;;;;0.65;0.30;;;;;;;9.30;100.00;96830.03;15273986;19;20081;-51
2023/11/10 13:51:42;;;;;;;1.40;0.28;;;;;;;9.46;100.00;96832.47;15277964;19;20032;-47
2023/11/10 13:57:04;;;;;;;1.08;0.20;;;;;;;9.37;100.00;96833.63;15272279;19;20018;-51
2023/11/10 14:02:28;;;;;;;0.28;0.20;;;;;;;9.34;100.00;96828.66;15277599;19;20014;-47
2023/11/10 14:07:53;;;;;;;0.45;0.30;;;;;;;9.28;100.00;96829.41;15272539;19;20018;-50
2023/11/10 14:13:20;;;;;;;0.30;0.30;;;;;;;9.44;100.00;96822.94;15270048;19;20023;-49
2023/11/10 14:18:45;;;;;;;1.08;0.30;;;;;;;9.65;100.00;96816.69;15268977;19;20670;-50
2023/11/10 14:24:09;;;;;;;0.35;0.20;;;;;;;9.77;100.00;96815.13;15271471;19;20018;-50
2023/11/10 14:29:39;;;;;;;0.32;0.28;;;;;;;9.87;100.00;96815.63;15272868;19;20026;-49
2023/11/10 14:35:09;;;;;;;0.70;0.20;;;;;;;9.87;100.00;96821.00;15267677;19;20022;-52
2023/11/10 14:40:34;;;;;;;0.65;0.30;;;;;;;9.55;100.00;96825.09;15266437;19;20529;-50
2023/11/10 14:46:07;;;;;;;0.55;0.30;;;;;;;9.16;100.00;96827.22;15266822;19;20032;-48
2023/11/10 14:51:42;;;;;;;0.40;0.30;;;;;;;8.84;100.00;96834.75;15273148;19;20024;-49
2023/11/10 14:57:07;;;;;;;0.63;0.20;;;;;;;8.68;100.00;96838.50;15267111;19;20029;-51
2023/11/10 15:02:35;;;;;;;2.63;0.50;;;;;;;8.58;100.00;96841.47;15272028;19;20018;-49
2023/11/10 15:07:59;;;;;;;0.93;0.30;;;;;;;8.51;100.00;96824.47;15265922;19;20035;-48
2023/11/10 15:13:24;;;;;;;0.55;0.30;;;;;;;8.48;100.00;96832.88;15262689;19;20014;-51
2023/11/10 15:18:51;;;;;;;0.95;0.30;;;;;;;8.35;100.00;96828.13;15261681;19;20018;-52
2023/11/10 15:24:16;;;;;;;0.30;0.30;;;;;;;8.19;100.00;96839.91;15265364;19;20506;-50
2023/11/10 15:29:40;;;;;;;0.28;0.20;;;;;;;8.13;100.00;96843.34;15266539;19;20018;-51
2023/11/10 15:35:09;;;;;;;0.55;0.20;;;;;;;8.06;100.00;96845.06;15268065;19;20097;-51
2023/11/10 15:40:33;;;;;;;1.02;0.20;;;;;;;8.04;100.00;96864.03;15267105;19;20491;-53
2023/11/10 15:46:00;;;;;;;0.52;0.38;;;;;;;7.99;100.00;96861.91;15259528;19;20089;-49
2023/11/10 15:51:28;;;;;;;0.57;0.22;;;;;;;7.83;100.00;96859.38;15265627;19;20011;-46
2023/11/10 15:57:09;;;;;;;1.85;0.43;;;;;;;7.69;100.00;96879.78;15259152;19;20494;-49
2023/11/10 16:02:34;;;;;;;0.68;0.40;;;;;;;7.65;100.00;96876.63;15263420;19;20492;-51
2023/11/10 16:08:05;;;;;;;0.95;0.40;;;;;;;7.69;100.00;96891.34;15266873;19;20010;-48
2023/11/10 16:13:31;;;;;;;3.70;0.30;;;;;;;7.65;100.00;96889.19;15254746;19;20034;-46
2023/11/10 16:18:56;;;;;;;0.60;0.60;;;;;;;7.66;100.00;96898.91;15257718;19;20037;-54
2023/11/10 16:24:25;;;;;;;1.17;0.60;;;;;;;7.62;100.00;96905.66;15264599;19;20785;-55
2023/11/10 16:29:49;;;;;;;1.13;0.55;;;;;;;7.51;100.00;96914.94;15265108;19;20032;-49
2023/11/10 16:35:14;;;;;;;1.17;0.45;;;;;;;7.39;100.00;96917.22;15259019;19;20011;-52
2023/11/10 16:40:42;;;;;;;0.47;0.30;;;;;;;7.29;100.00;96925.47;15263042;19;20742;-51
2023/11/10 16:46:07;;;;;;;1.17;0.40;;;;;;;7.16;100.00;96922.53;15260081;19;20287;-51
2023/11/10 16:51:33;;;;;;;0.55;0.38;;;;;;;6.99;100.00;96917.31;15265097;19;20496;-49
2023/11/10 16:57:04;;;;;;;0.95;0.50;;;;;;;6.88;100.00;96915.84;15261618;19;20010;-50
2023/11/10 17:02:28;;;;;;;0.75;0.50;;;;;;;6.75;100.00;96910.22;15265133;19;20033;-51
2023/11/10 17:08:02;;;;;;;1.52;0.43;;;;;;;6.58;100.00;96906.78;15280599;19;20014;-50
2023/11/10 17:13:30;;;;;;;2.47;0.60;;;;;;;6.45;100.00;96904.66;15278325;19;20015;-48
2023/11/10 17:18:55;;;;;;;2.08;0.90;;;;;;;6.35;100.00;96904.03;15272768;19;20634;-47
2023/11/10 17:24:19;;;;;;;4.03;1.17;;;;;;;6.29;100.00;96911.72;15279725;19;20016;-48
2023/11/10 17:29:47;;;;;;;1.40;1.27;;;;;;;6.26;100.00;96906.69;15274264;19;20748;-47
2023/11/10 17:35:12;;;;;;;4.97;3.05;;;;;;;6.24;100.00;96914.06;15274742;19;20032;-47
2023/11/10 17:40:37;;;;;;;4.57;2.13;;;;;;;6.22;100.00;96913.41;15273071;19;20368;-52
2023/11/10 17:46:05;;;;;;;1.88;1.30;;;;;;;6.17;100.00;96913.91;15271634;19;20082;-49
2023/11/10 17:51:24;;;;;;;2.28;1.60;;;;;;;6.11;100.00;96911.94;15274466;19;20006;-51
2023/11/10 17:56:49;;;;;;;3.17;2.08;;;;;;;6.05;100.00;96912.63;15266397;19;20014;-50
2023/11/10 18:02:16;;;;;;;1.42;1.13;;;;;;;6.00;100.00;96909.59;15275229;19;20301;-46
2023/11/10 18:07:41;;;;;;;1.50;1.40;;;;;;;5.91;100.00;96911.41;15253627;19;20020;-52
2023/11/10 18:13:06;;;;;;;2.38;1.35;;;;;;;5.85;100.00;96910.25;15273202;19;20094;-48
2023/11/10 18:18:35;;;;;;;1.95;1.20;;;;;;;5.78;100.00;96908.41;15272456;19;21254;-49
2023/11/10 18:24:02;;;;;;;3.15;1.20;;;;;;;5.74;100.00;96907.94;15265779;19;20352;-49
2023/11/10 18:29:32;;;;;;;2.55;1.40;;;;;;;5.67;100.00;96910.44;15271789;19;20022;-48
2023/11/10 18:34:59;;;;;;;1.45;1.30;;;;;;;5.61;100.00;96902.25;15269747;19;20037;-51
2023/11/10 18:40:24;;;;;;;2.95;1.30;;;;;;;5.53;100.00;96914.63;15270136;19;20014;-51
2023/11/10 18:45:49;;;;;;;2.63;1.40;;;;;;;5.49;100.00;96915.13;15268874;19;20021;-47
2023/11/10 18:51:17;;;;;;;6.63;4.53;;;;;;;5.48;100.00;96910.78;15272876;19;20029;-51
2023/11/10 18:56:42;;;;;;;4.35;2.90;;;;;;;5.43;100.00;96903.28;15263200;19;20014;-50
2023/11/10 19:02:07;;;;;;;3.55;2.20;;;;;;;5.38;100.00;96905.59;15276172;19;20010;-49
2023/11/10 19:07:35;;;;;;;1.52;1.20;;;;;;;5.31;100.00;96913.44;15270727;19;20014;-51
2023/11/10 19:12:59;;;;;;;1.77;0.90;;;;;;;5.24;100.00;96915.91;15271479;19;20066;-51
2023/11/10 19:18:23;;;;;;;2.47;0.70;;;;;;;5.16;100.00;96917.75;15270253;19;20035;-50
2023/11/10 19:23:51;;;;;;;1.75;0.70;;;;;;;5.09;100.00;96920.25;15269384;19;20021;-46
2023/11/10 19:29:16;;;;;;;0.70;0.60;;;;;;;5.08;100.00;96923.91;15263768;19;20632;-47
2023/11/10 19:34:43;;;;;;;1.60;0.60;;;;;;;5.04;100.00;96922.56;15266536;19;20022;-49
2023/11/10 19:40:11;;;;;;;1.35;0.70;;;;;;;5.00;100.00;96926.56;15267910;19;20016;-49
2023/11/10 19:45:36;;;;;;;1.40;0.70;;;;;;;4.96;100.00;96919.88;15261887;19;20006;-49
2023/11/10 19:51:00;;;;;;;1.85;0.80;;;;;;;4.85;100.00;96926.34;15269466;19;20092;-50
2023/11/10 19:56:49;;;;;;;1.65;0.70;;;;;;;4.80;100.00;96934.84;15264501;19;20304;-50
2023/11/10 20:02:14;;;;;;;1.30;0.70;;;;;;;4.80;100.00;96920.69;15255725;19;20364;-52
2023/11/10 20:07:39;;;;;;;0.85;0.65;;;;;;;4.77;100.00;96913.81;15263540;19;20021;-49
2023/11/10 20:13:07;;;;;;;1.52;0.70;;;;;;;4.76;100.00;96914.84;15266449;19;20023;-51
2023/11/10 20:18:32;;;;;;;2.95;0.88;;;;;;;4.71;100.00;96914.47;15263109;19;20589;-49
2023/11/10 20:23:58;;;;;;;2.95;0.90;;;;;;;4.69;100.00;96911.13;15263221;19;20025;-53
2023/11/10 20:29:26;;;;;;;2.15;1.00;;;;;;;4.75;100.00;96918.50;15263205;19;20374;-51
2023/11/10 20:34:50;;;;;;;4.40;1.45;;;;;;;4.84;100.00;96917.53;15248130;19;20029;-50
2023/11/10 20:40:16;;;;;;;3.85;1.73;;;;;;;4.97;100.00;96905.53;15264750;19;20090;-50
2023/11/10 20:45:43;;;;;;;3.67;1.40;;;;;;;4.94;100.00;96912.03;15268884;19;20041;-49
2023/11/10 20:51:08;;;;;;;2.67;1.13;;;;;;;4.94;100.00;96912.88;15279420;19;20017;-54
2023/11/10 20:56:34;;;;;;;1.90;1.00;;;;;;;4.98;100.00;96920.56;15273301;19;20025;-47
2023/11/10 21:02:01;;;;;;;3.45;1.33;;;;;;;4.93;100.00;96910.38;15271556;19;20018;-50
2023/11/10 21:07:27;;;;;;;2.38;0.95;;;;;;;4.84;100.00;96903.31;15270924;19;20022;-50
2023/11/10 21:12:54;;;;;;;1.33;0.80;;;;;;;4.76;100.00;96898.81;15275398;19;20325;-49
2023/11/10 21:18:21;;;;;;;3.70;0.90;;;;;;;4.73;100.00;96899.16;15275066;19;20014;-48
2023/11/10 21:23:47;;;;;;;3.55;0.93;;;;;;;4.69;100.00;96887.13;15275330;19;20460;-50
2023/11/10 21:29:12;;;;;;;3.67;1.13;;;;;;;4.66;100.00;96890.09;15277550;19;20019;-49
2023/11/10 21:34:40;;;;;;;1.65;0.70;;;;;;;4.60;100.00;96884.44;15275334;19;20281;-51
2023/11/10 21:40:06;;;;;;;2.00;0.88;;;;;;;4.55;100.00;96881.41;15269772;19;20017;-49
2023/11/10 21:45:38;;;;;;;3.42;1.05;;;;;;;4.51;100.00;96873.88;15296614;19;20023;-47
2023/11/10 21:51:06;;;;;;;2.58;0.80;;;;;;;4.50;100.00;96867.72;15304136;19;20018;-46
2023/11/10 21:56:30;;;;;;;2.38;0.90;;;;;;;4.48;100.00;96864.38;15297069;19;20078;-52
2023/11/10 22:01:56;;;;;;;2.67;1.00;;;;;;;4.47;100.00;96860.03;15277190;19;20023;-44
2023/11/10 22:07:23;;;;;;;2.00;0.93;;;;;;;4.50;100.00;96850.88;15271714;19;20061;-52
2023/11/10 22:12:49;;;;;;;1.40;0.95;;;;;;;4.54;100.00;96847.72;15270672;19;20025;-51
2023/11/10 22:18:14;;;;;;;1.70;0.90;;;;;;;4.56;100.00;96844.91;15267282;19;20018;-53
2023/11/10 22:23:42;;;;;;;2.70;1.00;;;;;;;4.55;100.00;96836.06;15267746;19;20025;-50
2023/11/10 22:29:07;;;;;;;1.92;0.90;;;;;;;4.52;100.00;96827.56;15272280;19;20011;-47
2023/11/10 22:34:31;;;;;;;2.13;1.00;;;;;;;4.51;100.00;96825.88;15270220;19;20070;-50
2023/11/10 22:39:58;;;;;;;3.13;0.88;;;;;;;4.57;100.00;96827.91;15269287;19;20010;-49
2023/11/10 22:45:25;;;;;;;1.70;0.90;;;;;;;4.62;100.00;96831.75;15263824;19;20098;-47
2023/11/10 22:50:51;;;;;;;3.65;1.23;;;;;;;4.67;100.00;96836.59;15268658;19;20014;-54
2023/11/10 22:56:19;;;;;;;1.98;0.80;;;;;;;4.63;100.00;96828.09;15265833;19;20022;-47
2023/11/10 23:01:44;;;;;;;1.55;0.77;;;;;;;4.59;100.00;96833.91;15264457;19;20015;-47
2023/11/10 23:07:09;;;;;;;3.53;0.98;;;;;;;4.52;100.00;96822.22;15265908;19;20588;-47
2023/11/10 23:12:40;;;;;;;2.78;0.80;;;;;;;4.46;100.00;96831.72;15271007;19;20017;-47
2023/11/10 23:18:05;;;;;;;2.10;0.93;;;;;;;4.41;100.00;96829.53;15263931;19;20070;-51
2023/11/10 23:23:29;;;;;;;2.67;0.77;;;;;;;4.41;100.00;96826.03;15267654;19;20294;-47
2023/11/10 23:28:57;;;;;;;1.63;0.70;;;;;;;4.48;100.00;96821.72;15263855;19;20021;-46
2023/11/10 23:34:21;;;;;;;2.88;0.90;;;;;;;4.60;100.00;96815.09;15265092;19;20014;-49
2023/11/10 23:39:46;;;;;;;2.10;0.77;;;;;;;4.77;100.00;96815.94;15267007;19;20125;-47
2023/11/10 23:45:16;;;;;;;1.70;0.70;;;;;;;4.90;100.00;96802.13;15263985;19;20082;-47
2023/11/10 23:50:41;;;;;;;0.95;0.70;;;;;;;4.98;100.00;96806.63;15266206;19;20022;-48
2023/11/10 23:56:06;;;;;;;2.15;0.77;;;;;;;5.00;100.00;96798.47;15263298;19;20018;-47
